Time;durP1;ratioP1;P1;durP2;ratioP2;P2;SDS_P1;SDS_P2;PMS_P1;PMS_P2;Temp;Humidity;BMP_temperature;BMP_pressure;BME280_temperature;BME280_humidity;BME280_pressure;Samples;Min_cycle;Max_cycle;Signal;HPM_P1;HPM_P2
2021/08/04 00:01:35;;;;;;;20.15;5.68;;;;;;;;;;5075440;28;20105;-71
2021/08/04 00:04:01;;;;;;;14.48;5.20;;;;;;;;;;5072283;28;20031;-71
2021/08/04 00:06:27;;;;;;;13.50;5.50;;;;;;;;;;5083089;28;20029;-72
2021/08/04 00:08:54;;;;;;;14.45;5.78;;;;;;;;;;5071951;28;20020;-71
2021/08/04 00:11:20;;;;;;;18.48;5.43;;;;;;;;;;5069155;28;20029;-71
2021/08/04 00:13:47;;;;;;;15.98;5.25;;;;;;;;;;5073272;28;20052;-71
2021/08/04 00:16:13;;;;;;;12.48;5.53;;;;;;;;;;5073638;28;20025;-72
2021/08/04 00:18:39;;;;;;;16.77;5.22;;;;;;;;;;5074589;28;20048;-71
2021/08/04 00:21:05;;;;;;;18.05;5.70;;;;;;;;;;5073580;28;20040;-71
2021/08/04 00:23:31;;;;;;;13.20;5.50;;;;;;;;;;5069320;28;20043;-71
2021/08/04 00:25:57;;;;;;;18.33;6.03;;;;;;;;;;5077217;28;20072;-71
2021/08/04 00:28:24;;;;;;;10.60;5.10;;;;;;;;;;5071421;28;20039;-71
2021/08/04 00:30:50;;;;;;;14.05;5.45;;;;;;;;;;5070559;28;20567;-72
2021/08/04 00:33:16;;;;;;;13.50;5.32;;;;;;;;;;5069832;28;20103;-71
2021/08/04 00:35:42;;;;;;;16.00;5.97;;;;;;;;;;5071089;28;20043;-71
2021/08/04 00:38:09;;;;;;;20.70;5.90;;;;;;;;;;5069736;28;20024;-71
2021/08/04 00:40:36;;;;;;;17.58;5.78;;;;;;;;;;5076487;28;20036;-71
2021/08/04 00:43:02;;;;;;;21.17;6.47;;;;;;;;;;5073567;28;20031;-71
2021/08/04 00:45:28;;;;;;;18.05;5.43;;;;;;;;;;5068216;28;20035;-71
2021/08/04 00:47:56;;;;;;;10.98;5.35;;;;;;;;;;5078590;28;20024;-71
2021/08/04 00:50:22;;;;;;;17.00;5.50;;;;;;;;;;5072569;28;20896;-72
2021/08/04 00:52:49;;;;;;;15.30;5.25;;;;;;;;;;5068837;28;20081;-71
2021/08/04 00:55:15;;;;;;;13.15;4.72;;;;;;;;;;5070073;28;20107;-71
2021/08/04 00:57:41;;;;;;;16.42;5.53;;;;;;;;;;5068783;28;20024;-71
2021/08/04 01:00:08;;;;;;;21.15;5.68;;;;;;;;;;5070151;28;20036;-71
2021/08/04 01:02:39;;;;;;;15.82;5.80;;;;;;;;;;5066435;28;20043;-72
2021/08/04 01:05:07;;;;;;;13.55;5.97;;;;;;;;;;5071654;28;20028;-72
2021/08/04 01:08:00;;;;;;;22.42;5.97;;;;;;;;;;5070298;28;20033;-71
2021/08/04 01:10:28;;;;;;;15.82;6.22;;;;;;;;;;5068711;28;20037;-71
2021/08/04 01:13:13;;;;;;;18.30;5.90;;;;;;;;;;5070987;28;20016;-72
2021/08/04 01:15:43;;;;;;;16.08;5.72;;;;;;;;;;5081533;28;20028;-71
2021/08/04 01:18:10;;;;;;;15.38;5.88;;;;;;;;;;5072287;28;20106;-72
2021/08/04 01:20:37;;;;;;;15.05;5.88;;;;;;;;;;5068221;28;20089;-72
2021/08/04 01:23:03;;;;;;;15.80;5.85;;;;;;;;;;5072367;28;20489;-71
2021/08/04 01:25:31;;;;;;;14.88;6.28;;;;;;;;;;5073240;28;20040;-72
2021/08/04 01:28:16;;;;;;;13.80;5.53;;;;;;;;;;5072542;28;20367;-71
2021/08/04 01:30:44;;;;;;;10.98;5.47;;;;;;;;;;5071411;28;20032;-71
2021/08/04 01:33:11;;;;;;;11.48;5.50;;;;;;;;;;5073152;28;20031;-72
2021/08/04 01:35:37;;;;;;;20.13;6.35;;;;;;;;;;5071603;28;20034;-71
2021/08/04 01:38:04;;;;;;;15.60;5.75;;;;;;;;;;5074139;28;20030;-71
2021/08/04 01:40:31;;;;;;;12.77;5.43;;;;;;;;;;5073598;28;20044;-72
2021/08/04 01:42:58;;;;;;;18.40;5.47;;;;;;;;;;5072315;28;20032;-71
2021/08/04 01:45:25;;;;;;;16.95;5.03;;;;;;;;;;5070712;28;20499;-71
2021/08/04 01:47:51;;;;;;;15.90;5.78;;;;;;;;;;5075576;28;20151;-71
2021/08/04 01:50:17;;;;;;;13.68;5.88;;;;;;;;;;5070379;28;20117;-72
2021/08/04 01:52:44;;;;;;;22.20;5.40;;;;;;;;;;5072130;28;20025;-71
2021/08/04 01:55:11;;;;;;;13.63;5.43;;;;;;;;;;5069252;28;20635;-71
2021/08/04 01:57:40;;;;;;;17.58;5.03;;;;;;;;;;5073426;28;20021;-71
2021/08/04 02:00:06;;;;;;;12.90;5.32;;;;;;;;;;5071662;28;20048;-71
2021/08/04 02:02:33;;;;;;;16.75;5.65;;;;;;;;;;5068588;28;20044;-71
2021/08/04 02:04:59;;;;;;;25.33;6.00;;;;;;;;;;5072504;28;20115;-72
2021/08/04 02:07:37;;;;;;;15.18;5.55;;;;;;;;;;5074707;28;20023;-71
2021/08/04 02:10:06;;;;;;;14.27;4.93;;;;;;;;;;5072580;28;20036;-71
2021/08/04 02:12:38;;;;;;;14.63;5.20;;;;;;;;;;5077763;28;20583;-71
2021/08/04 02:15:11;;;;;;;20.75;5.18;;;;;;;;;;5070443;28;20020;-71
2021/08/04 02:17:39;;;;;;;13.25;5.10;;;;;;;;;;5073396;28;20040;-72
2021/08/04 02:20:26;;;;;;;10.82;5.13;;;;;;;;;;5071043;28;20548;-71
2021/08/04 02:23:00;;;;;;;12.00;5.18;;;;;;;;;;5069941;28;20024;-72
2021/08/04 02:25:34;;;;;;;15.07;5.88;;;;;;;;;;5070466;28;20032;-72
2021/08/04 02:28:01;;;;;;;14.60;5.28;;;;;;;;;;5072081;28;20024;-71
2021/08/04 02:30:28;;;;;;;12.82;5.32;;;;;;;;;;5070965;28;20035;-72
2021/08/04 02:32:54;;;;;;;14.05;5.95;;;;;;;;;;5070872;28;20666;-71
2021/08/04 02:35:21;;;;;;;16.70;5.30;;;;;;;;;;5075679;28;20137;-71
2021/08/04 02:37:47;;;;;;;13.88;5.57;;;;;;;;;;5072502;28;20023;-71
2021/08/04 02:40:14;;;;;;;20.27;6.53;;;;;;;;;;5069508;28;20039;-71
2021/08/04 02:42:41;;;;;;;16.48;5.72;;;;;;;;;;5073951;28;20046;-71
2021/08/04 02:45:07;;;;;;;16.52;6.00;;;;;;;;;;5069929;28;20112;-72
2021/08/04 02:47:34;;;;;;;15.48;5.60;;;;;;;;;;5071725;28;20036;-72
2021/08/04 02:50:02;;;;;;;11.35;5.05;;;;;;;;;;5071275;28;20568;-72
2021/08/04 02:52:28;;;;;;;15.43;5.15;;;;;;;;;;5067823;28;20058;-71
2021/08/04 02:54:54;;;;;;;14.45;5.00;;;;;;;;;;5070196;28;20036;-71
2021/08/04 02:57:20;;;;;;;14.23;5.25;;;;;;;;;;5072118;28;20093;-71
2021/08/04 02:59:47;;;;;;;13.27;5.28;;;;;;;;;;5070088;28;20037;-72
2021/08/04 03:02:13;;;;;;;17.42;6.03;;;;;;;;;;5071386;28;20035;-72
2021/08/04 03:04:39;;;;;;;17.48;5.80;;;;;;;;;;5067751;28;20618;-71
2021/08/04 03:07:05;;;;;;;18.45;5.22;;;;;;;;;;5074106;28;20054;-71
2021/08/04 03:09:31;;;;;;;13.73;5.45;;;;;;;;;;5082034;28;20046;-71
2021/08/04 03:11:57;;;;;;;17.30;5.30;;;;;;;;;;5083218;28;20024;-71
2021/08/04 03:14:24;;;;;;;15.48;5.30;;;;;;;;;;5083120;28;20495;-71
2021/08/04 03:16:50;;;;;;;14.82;6.00;;;;;;;;;;5083207;28;20024;-71
2021/08/04 03:19:16;;;;;;;13.50;4.78;;;;;;;;;;5081796;28;20021;-71
2021/08/04 03:21:43;;;;;;;19.67;5.57;;;;;;;;;;5083058;28;20401;-71
2021/08/04 03:24:09;;;;;;;16.23;4.95;;;;;;;;;;5083167;28;20111;-71
2021/08/04 03:26:35;;;;;;;16.50;5.30;;;;;;;;;;5082787;28;20020;-71
2021/08/04 03:29:02;;;;;;;14.93;5.13;;;;;;;;;;5083529;28;20111;-71
2021/08/04 03:31:28;;;;;;;17.52;5.43;;;;;;;;;;5081810;28;20024;-71
2021/08/04 03:33:54;;;;;;;18.60;5.18;;;;;;;;;;5079329;28;20031;-71
2021/08/04 03:36:21;;;;;;;14.65;5.47;;;;;;;;;;5076557;28;20066;-71
2021/08/04 03:38:47;;;;;;;13.38;5.43;;;;;;;;;;5082876;28;20403;-71
2021/08/04 03:41:13;;;;;;;16.63;5.85;;;;;;;;;;5082718;28;20196;-72
2021/08/04 03:43:39;;;;;;;16.77;5.05;;;;;;;;;;5080884;28;20433;-71
2021/08/04 03:46:05;;;;;;;12.30;5.57;;;;;;;;;;5082673;28;20055;-71
2021/08/04 03:48:31;;;;;;;14.60;4.82;;;;;;;;;;5082491;28;20081;-71
2021/08/04 03:50:57;;;;;;;14.15;5.40;;;;;;;;;;5082980;28;20342;-71
2021/08/04 03:53:23;;;;;;;12.75;4.38;;;;;;;;;;5075702;28;20020;-71
2021/08/04 03:55:50;;;;;;;11.73;5.03;;;;;;;;;;5081962;28;20090;-72
2021/08/04 03:58:16;;;;;;;14.57;5.03;;;;;;;;;;5081038;28;20023;-72
2021/08/04 04:00:43;;;;;;;13.52;5.28;;;;;;;;;;5082172;28;20032;-71
2021/08/04 04:03:10;;;;;;;11.93;5.25;;;;;;;;;;5079155;28;20020;-71
2021/08/04 04:05:36;;;;;;;13.68;5.32;;;;;;;;;;5077758;28;20119;-72
2021/08/04 04:08:08;;;;;;;13.88;4.65;;;;;;;;;;5082586;28;20028;-71
2021/08/04 04:10:34;;;;;;;16.23;5.43;;;;;;;;;;5082700;28;20085;-71
2021/08/04 04:13:00;;;;;;;11.07;4.60;;;;;;;;;;5081162;28;20466;-71
2021/08/04 04:15:26;;;;;;;13.40;4.78;;;;;;;;;;5082254;28;20051;-72
2021/08/04 04:17:52;;;;;;;15.93;5.13;;;;;;;;;;5081917;28;20629;-71
2021/08/04 04:20:19;;;;;;;12.95;4.90;;;;;;;;;;5082274;28;20086;-72
2021/08/04 04:22:45;;;;;;;26.30;6.68;;;;;;;;;;5082035;28;20052;-71
2021/08/04 04:25:12;;;;;;;15.80;5.78;;;;;;;;;;5082080;28;20028;-72
2021/08/04 04:27:39;;;;;;;14.00;5.72;;;;;;;;;;5080358;28;20024;-72
2021/08/04 04:30:06;;;;;;;12.35;5.25;;;;;;;;;;5080444;28;20023;-72
2021/08/04 04:32:32;;;;;;;13.88;5.50;;;;;;;;;;5081974;28;20027;-71
2021/08/04 04:35:01;;;;;;;17.02;4.90;;;;;;;;;;5081550;28;20495;-71
2021/08/04 04:37:27;;;;;;;15.93;5.03;;;;;;;;;;5078506;28;20028;-71
2021/08/04 04:39:53;;;;;;;16.98;5.25;;;;;;;;;;5081980;28;20832;-72
2021/08/04 04:42:21;;;;;;;15.77;5.30;;;;;;;;;;5081653;28;20016;-71
2021/08/04 04:44:52;;;;;;;14.90;5.95;;;;;;;;;;5081775;28;20496;-71
2021/08/04 04:47:18;;;;;;;13.10;5.40;;;;;;;;;;5080202;28;20594;-71
2021/08/04 04:49:44;;;;;;;19.48;4.97;;;;;;;;;;5081802;28;20024;-71
2021/08/04 04:52:11;;;;;;;19.40;6.05;;;;;;;;;;5081433;28;20218;-72
2021/08/04 04:54:37;;;;;;;14.77;5.35;;;;;;;;;;5081962;28;20020;-72
2021/08/04 04:57:03;;;;;;;15.80;5.40;;;;;;;;;;5082016;28;20424;-72
2021/08/04 04:59:37;;;;;;;16.67;4.97;;;;;;;;;;5074566;28;20034;-71
2021/08/04 05:02:03;;;;;;;13.05;4.68;;;;;;;;;;5076132;28;20035;-71
2021/08/04 05:04:29;;;;;;;19.92;5.80;;;;;;;;;;5081876;28;20054;-71
2021/08/04 05:07:01;;;;;;;19.27;5.78;;;;;;;;;;5072707;28;20032;-71
2021/08/04 05:09:26;;;;;;;;;;;;;;;;;;5080287;28;20103;-72
2021/08/04 05:11:53;;;;;;;17.00;6.50;;;;;;;;;;5081333;28;19995;-71
2021/08/04 05:14:19;;;;;;;20.83;6.53;;;;;;;;;;5081109;28;20021;-72
2021/08/04 05:16:45;;;;;;;15.10;5.68;;;;;;;;;;5081710;28;20161;-71
2021/08/04 05:19:11;;;;;;;20.67;6.40;;;;;;;;;;5078375;28;20361;-72
2021/08/04 05:21:37;;;;;;;14.52;5.90;;;;;;;;;;5081743;28;20036;-72
2021/08/04 05:24:04;;;;;;;19.05;6.72;;;;;;;;;;5081616;28;20023;-71
2021/08/04 05:26:30;;;;;;;18.73;6.82;;;;;;;;;;5081419;28;20042;-72
2021/08/04 05:28:57;;;;;;;14.85;7.63;;;;;;;;;;5080997;28;20024;-71
2021/08/04 05:31:23;;;;;;;18.98;7.75;;;;;;;;;;5077830;28;20012;-72
2021/08/04 05:33:50;;;;;;;19.98;7.55;;;;;;;;;;5081204;28;20087;-71
2021/08/04 05:36:16;;;;;;;19.30;8.02;;;;;;;;;;5081510;28;20064;-71
2021/08/04 05:38:42;;;;;;;18.08;7.13;;;;;;;;;;5081229;28;20050;-71
2021/08/04 05:41:08;;;;;;;16.05;9.32;;;;;;;;;;5081615;28;20092;-72
2021/08/04 05:43:37;;;;;;;15.88;8.75;;;;;;;;;;5079513;28;20020;-71
2021/08/04 05:46:03;;;;;;;18.17;9.75;;;;;;;;;;5079805;28;20024;-72
2021/08/04 05:48:34;;;;;;;30.88;14.02;;;;;;;;;;5081310;28;20024;-71
2021/08/04 05:51:00;;;;;;;30.50;16.73;;;;;;;;;;5081637;28;20597;-71
2021/08/04 05:53:26;;;;;;;44.50;19.00;;;;;;;;;;5081456;28;20035;-71
2021/08/04 05:56:00;;;;;;;30.75;16.90;;;;;;;;;;5082214;28;20415;-72
2021/08/04 05:58:26;;;;;;;33.70;16.05;;;;;;;;;;5085097;28;20036;-71
2021/08/04 06:00:53;;;;;;;32.80;16.67;;;;;;;;;;5083266;28;20311;-71
2021/08/04 06:03:19;;;;;;;40.90;22.17;;;;;;;;;;5084876;28;20020;-71
2021/08/04 06:05:46;;;;;;;42.97;25.90;;;;;;;;;;5084402;28;20034;-72
2021/08/04 06:08:12;;;;;;;46.15;25.95;;;;;;;;;;5084687;28;20495;-72
2021/08/04 06:10:38;;;;;;;38.80;18.88;;;;;;;;;;5083940;28;20036;-72
2021/08/04 06:13:04;;;;;;;44.47;15.23;;;;;;;;;;5082688;28;20044;-71
2021/08/04 06:15:30;;;;;;;22.92;10.40;;;;;;;;;;5084722;28;20027;-72
2021/08/04 06:17:56;;;;;;;31.35;12.35;;;;;;;;;;5074444;28;20129;-71
2021/08/04 06:20:23;;;;;;;28.10;12.43;;;;;;;;;;5084491;28;20044;-71
2021/08/04 06:22:49;;;;;;;27.25;11.88;;;;;;;;;;5082876;28;20024;-71
2021/08/04 06:25:15;;;;;;;19.50;8.93;;;;;;;;;;5068444;28;20024;-71
2021/08/04 06:27:41;;;;;;;19.25;6.68;;;;;;;;;;5084070;28;20081;-72
2021/08/04 06:30:07;;;;;;;16.42;6.28;;;;;;;;;;5074702;28;20046;-71
2021/08/04 06:32:34;;;;;;;20.80;5.95;;;;;;;;;;5084190;28;20031;-71
2021/08/04 06:35:00;;;;;;;15.77;6.43;;;;;;;;;;5079098;28;20078;-71
2021/08/04 06:37:26;;;;;;;14.77;5.55;;;;;;;;;;5070815;28;20032;-71
2021/08/04 06:39:52;;;;;;;22.85;6.78;;;;;;;;;;5077794;28;20369;-71
2021/08/04 06:42:19;;;;;;;22.70;7.18;;;;;;;;;;5082167;28;20024;-71
2021/08/04 06:44:45;;;;;;;19.63;7.00;;;;;;;;;;5081141;28;20516;-74
2021/08/04 06:47:11;;;;;;;18.25;6.82;;;;;;;;;;5084053;28;20020;-72
2021/08/04 06:49:37;;;;;;;10.95;6.18;;;;;;;;;;5076591;28;20023;-72
2021/08/04 06:52:04;;;;;;;20.15;6.80;;;;;;;;;;5074385;28;20028;-75
2021/08/04 06:54:30;;;;;;;25.63;10.55;;;;;;;;;;5067940;28;20016;-72
2021/08/04 06:56:56;;;;;;;23.25;10.40;;;;;;;;;;5076018;28;20024;-73
2021/08/04 06:59:22;;;;;;;21.05;10.05;;;;;;;;;;5070896;28;20031;-73
2021/08/04 07:01:48;;;;;;;15.07;8.02;;;;;;;;;;5071054;28;20062;-72
2021/08/04 07:04:15;;;;;;;14.30;6.90;;;;;;;;;;5072927;28;20027;-73
2021/08/04 07:06:57;;;;;;;16.75;7.63;;;;;;;;;;5067563;28;20404;-72
2021/08/04 07:09:24;;;;;;;17.48;8.40;;;;;;;;;;5073586;28;20016;-73
2021/08/04 07:11:50;;;;;;;13.48;6.63;;;;;;;;;;5067788;28;20028;-72
2021/08/04 07:14:19;;;;;;;23.92;8.10;;;;;;;;;;5071259;28;20294;-73
2021/08/04 07:16:46;;;;;;;21.15;7.80;;;;;;;;;;5080954;28;20508;-74
2021/08/04 07:19:12;;;;;;;18.85;7.22;;;;;;;;;;5072835;28;20228;-74
2021/08/04 07:21:39;;;;;;;22.38;7.43;;;;;;;;;;5070712;28;20032;-73
2021/08/04 07:24:08;;;;;;;20.65;7.50;;;;;;;;;;5073609;28;20035;-73
2021/08/04 07:26:35;;;;;;;15.82;6.68;;;;;;;;;;5079469;28;20051;-76
2021/08/04 07:29:01;;;;;;;15.15;6.07;;;;;;;;;;5072671;28;20016;-71
2021/08/04 07:31:27;;;;;;;13.90;5.47;;;;;;;;;;5071728;28;20113;-76
2021/08/04 07:33:54;;;;;;;13.02;5.43;;;;;;;;;;5068439;28;20028;-74
2021/08/04 07:36:20;;;;;;;10.52;5.00;;;;;;;;;;5070351;28;20027;-73
2021/08/04 07:38:46;;;;;;;15.10;5.20;;;;;;;;;;5081421;28;20019;-74
2021/08/04 07:41:13;;;;;;;15.63;5.50;;;;;;;;;;5075308;28;20050;-74
2021/08/04 07:43:39;;;;;;;15.57;5.88;;;;;;;;;;5079532;28;20426;-74
2021/08/04 07:46:05;;;;;;;12.13;5.13;;;;;;;;;;5081332;28;20620;-72
2021/08/04 07:48:33;;;;;;;14.18;6.00;;;;;;;;;;5072193;28;20112;-76
2021/08/04 07:51:01;;;;;;;14.93;6.18;;;;;;;;;;5074440;28;20537;-73
2021/08/04 07:53:27;;;;;;;15.43;6.40;;;;;;;;;;5061578;28;20029;-73
2021/08/04 07:55:54;;;;;;;23.38;6.70;;;;;;;;;;5060390;28;20658;-73
2021/08/04 07:58:20;;;;;;;14.70;5.72;;;;;;;;;;5070595;28;20020;-75
2021/08/04 08:00:46;;;;;;;13.75;4.97;;;;;;;;;;5064126;28;20524;-74
2021/08/04 08:03:12;;;;;;;13.05;5.80;;;;;;;;;;5063923;28;20024;-72
2021/08/04 08:05:38;;;;;;;21.00;6.20;;;;;;;;;;5068113;28;20537;-75
2021/08/04 08:08:05;;;;;;;11.75;5.57;;;;;;;;;;5061657;28;20209;-73
2021/08/04 08:10:33;;;;;;;17.00;5.75;;;;;;;;;;5060443;28;20119;-75
2021/08/04 08:12:59;;;;;;;14.68;5.25;;;;;;;;;;5060291;28;20026;-73
2021/08/04 08:15:26;;;;;;;14.43;5.80;;;;;;;;;;5061732;28;20028;-76
2021/08/04 08:17:52;;;;;;;12.07;5.03;;;;;;;;;;5070982;28;20100;-74
2021/08/04 08:20:19;;;;;;;13.95;6.07;;;;;;;;;;5070746;28;20036;-73
2021/08/04 08:22:46;;;;;;;13.27;5.38;;;;;;;;;;5064586;28;20074;-76
2021/08/04 08:25:13;;;;;;;13.55;4.85;;;;;;;;;;5059876;28;20028;-73
2021/08/04 08:27:39;;;;;;;15.90;5.22;;;;;;;;;;5061231;28;20075;-74
2021/08/04 08:30:06;;;;;;;12.90;5.75;;;;;;;;;;5059421;28;20483;-74
2021/08/04 08:32:32;;;;;;;13.35;5.53;;;;;;;;;;5061078;28;20032;-73
2021/08/04 08:34:59;;;;;;;9.43;5.18;;;;;;;;;;5060668;28;20013;-74
2021/08/04 08:37:25;;;;;;;12.60;5.35;;;;;;;;;;5066999;28;20015;-74
2021/08/04 08:39:51;;;;;;;11.75;5.68;;;;;;;;;;5081298;28;20064;-74
2021/08/04 08:42:20;;;;;;;16.52;5.43;;;;;;;;;;5081416;28;20281;-74
2021/08/04 08:44:47;;;;;;;14.55;5.90;;;;;;;;;;5081334;28;20107;-74
2021/08/04 08:47:13;;;;;;;12.88;5.18;;;;;;;;;;5079582;28;20043;-73
2021/08/04 08:49:41;;;;;;;15.77;4.63;;;;;;;;;;5071750;28;20025;-73
2021/08/04 08:52:07;;;;;;;16.25;5.82;;;;;;;;;;5075631;28;20028;-74
2021/08/04 08:54:33;;;;;;;24.25;7.10;;;;;;;;;;5071631;28;20494;-75
2021/08/04 08:57:00;;;;;;;9.63;4.93;;;;;;;;;;5077912;28;20111;-74
2021/08/04 08:59:26;;;;;;;14.50;5.38;;;;;;;;;;5075031;28;20017;-75
2021/08/04 09:01:52;;;;;;;17.48;6.32;;;;;;;;;;5074104;28;20135;-75
2021/08/04 09:04:19;;;;;;;15.02;4.85;;;;;;;;;;5081174;28;20597;-75
2021/08/04 09:06:46;;;;;;;11.85;5.13;;;;;;;;;;5077890;28;20054;-76
2021/08/04 09:09:18;;;;;;;15.02;5.65;;;;;;;;;;5078273;28;20024;-75
2021/08/04 09:11:45;;;;;;;15.88;6.00;;;;;;;;;;5075647;28;20028;-75
2021/08/04 09:14:11;;;;;;;16.13;6.20;;;;;;;;;;5074396;28;20034;-75
2021/08/04 09:16:39;;;;;;;18.95;5.70;;;;;;;;;;5079206;28;20028;-75
2021/08/04 09:19:18;;;;;;;17.05;5.53;;;;;;;;;;5074855;28;20054;-75
2021/08/04 09:21:44;;;;;;;17.20;5.53;;;;;;;;;;5071228;28;20176;-74
2021/08/04 09:24:10;;;;;;;14.73;5.72;;;;;;;;;;5080547;28;20544;-75
2021/08/04 09:26:39;;;;;;;16.20;5.75;;;;;;;;;;5068933;28;20024;-74
2021/08/04 09:29:07;;;;;;;16.00;5.63;;;;;;;;;;5082783;28;20364;-74
2021/08/04 09:31:48;;;;;;;22.55;6.28;;;;;;;;;;5083774;28;20024;-75
2021/08/04 09:34:26;;;;;;;15.82;6.22;;;;;;;;;;5080861;28;20024;-74
2021/08/04 09:37:00;;;;;;;11.88;5.22;;;;;;;;;;5080534;28;20412;-74
2021/08/04 09:39:26;;;;;;;17.50;5.50;;;;;;;;;;5070442;28;20026;-74
2021/08/04 09:41:52;;;;;;;18.10;5.97;;;;;;;;;;5080936;28;20546;-71
2021/08/04 09:44:18;;;;;;;17.27;6.03;;;;;;;;;;5078105;28;20020;-71
2021/08/04 09:46:44;;;;;;;18.20;5.85;;;;;;;;;;5090453;28;20554;-71
2021/08/04 09:49:11;;;;;;;12.13;5.68;;;;;;;;;;5085196;28;20024;-71
2021/08/04 09:51:38;;;;;;;15.73;5.90;;;;;;;;;;5082595;28;20353;-71
2021/08/04 09:54:11;;;;;;;17.15;5.93;;;;;;;;;;5084305;28;20107;-72
2021/08/04 09:56:56;;;;;;;12.93;5.65;;;;;;;;;;5084743;28;20031;-71
2021/08/04 09:59:23;;;;;;;13.00;6.38;;;;;;;;;;5084619;28;20031;-71
2021/08/04 10:01:49;;;;;;;15.55;6.15;;;;;;;;;;5084279;28;20044;-71
2021/08/04 10:04:16;;;;;;;16.02;5.93;;;;;;;;;;5084179;28;20163;-71
2021/08/04 10:06:43;;;;;;;14.73;5.68;;;;;;;;;;5084752;28;20024;-70
2021/08/04 10:09:13;;;;;;;13.93;5.43;;;;;;;;;;5082985;28;20051;-71
2021/08/04 10:11:47;;;;;;;16.30;5.85;;;;;;;;;;5084375;28;20126;-71
2021/08/04 10:14:16;;;;;;;11.82;4.60;;;;;;;;;;5084530;28;20043;-71
2021/08/04 10:16:43;;;;;;;13.82;5.55;;;;;;;;;;5082747;28;20384;-71
2021/08/04 10:19:09;;;;;;;19.38;5.30;;;;;;;;;;5083619;28;20422;-71
2021/08/04 10:21:36;;;;;;;14.77;5.47;;;;;;;;;;5084146;28;20036;-71
2021/08/04 10:24:03;;;;;;;13.50;5.25;;;;;;;;;;5083917;28;20103;-71
2021/08/04 10:26:29;;;;;;;14.77;5.28;;;;;;;;;;5082041;28;20246;-71
2021/08/04 10:28:57;;;;;;;17.35;5.32;;;;;;;;;;5084031;28;20020;-71
2021/08/04 10:31:24;;;;;;;17.83;5.30;;;;;;;;;;5083905;28;20400;-71
2021/08/04 10:33:50;;;;;;;19.55;6.03;;;;;;;;;;5083862;28;20043;-71
2021/08/04 10:36:20;;;;;;;17.75;6.03;;;;;;;;;;5082434;28;20039;-72
2021/08/04 10:38:48;;;;;;;13.63;4.88;;;;;;;;;;5082337;28;20504;-71
2021/08/04 10:41:18;;;;;;;10.60;4.80;;;;;;;;;;5083161;28;20039;-71
2021/08/04 10:43:53;;;;;;;16.73;5.22;;;;;;;;;;5083399;28;20019;-71
2021/08/04 10:46:31;;;;;;;12.88;5.10;;;;;;;;;;5082251;28;20480;-71
2021/08/04 10:49:03;;;;;;;18.70;5.60;;;;;;;;;;5082052;28;20425;-71
2021/08/04 10:51:30;;;;;;;19.63;6.07;;;;;;;;;;5082190;28;20035;-71
2021/08/04 10:54:02;;;;;;;13.23;4.75;;;;;;;;;;5083398;28;20034;-71
2021/08/04 10:56:34;;;;;;;12.15;5.03;;;;;;;;;;5084023;28;20492;-71
2021/08/04 10:59:12;;;;;;;15.10;5.97;;;;;;;;;;5081921;28;20024;-71
2021/08/04 11:01:39;;;;;;;15.93;5.45;;;;;;;;;;5083078;28;20039;-71
2021/08/04 11:04:06;;;;;;;17.35;5.13;;;;;;;;;;5081975;28;20027;-71
2021/08/04 11:06:33;;;;;;;14.98;5.68;;;;;;;;;;5083109;28;20043;-71
2021/08/04 11:09:18;;;;;;;19.90;5.97;;;;;;;;;;5081817;28;20077;-71
2021/08/04 11:11:57;;;;;;;10.85;4.75;;;;;;;;;;5082773;28;20532;-71
2021/08/04 11:14:43;;;;;;;12.18;5.40;;;;;;;;;;5082904;28;20672;-71
2021/08/04 11:17:11;;;;;;;15.77;5.65;;;;;;;;;;5083191;28;20390;-71
2021/08/04 11:19:55;;;;;;;12.77;5.07;;;;;;;;;;5083051;28;20495;-71
2021/08/04 11:22:22;;;;;;;11.25;4.90;;;;;;;;;;5080939;28;20016;-72
2021/08/04 11:24:59;;;;;;;14.07;5.53;;;;;;;;;;5082952;28;20078;-70
2021/08/04 11:27:27;;;;;;;15.40;4.80;;;;;;;;;;5082730;28;20454;-71
2021/08/04 11:29:55;;;;;;;14.55;5.65;;;;;;;;;;5082222;28;20515;-71
2021/08/04 11:32:21;;;;;;;14.90;5.40;;;;;;;;;;5082509;28;20070;-71
2021/08/04 11:34:47;;;;;;;18.15;5.63;;;;;;;;;;5080930;28;20016;-71
2021/08/04 11:37:13;;;;;;;16.55;5.13;;;;;;;;;;5082460;28;20035;-71
2021/08/04 11:39:56;;;;;;;19.23;6.10;;;;;;;;;;5082273;28;20028;-71
2021/08/04 11:42:23;;;;;;;17.42;5.43;;;;;;;;;;5082552;28;20035;-73
2021/08/04 11:44:49;;;;;;;16.50;5.15;;;;;;;;;;5082686;28;20474;-72
2021/08/04 11:47:15;;;;;;;14.90;5.25;;;;;;;;;;5082135;28;20027;-71
2021/08/04 11:49:41;;;;;;;12.75;4.70;;;;;;;;;;5080851;28;20028;-71
2021/08/04 11:52:15;;;;;;;14.80;5.10;;;;;;;;;;5082154;28;20056;-71
2021/08/04 11:54:44;;;;;;;12.05;5.07;;;;;;;;;;5082351;28;20047;-71
2021/08/04 11:57:30;;;;;;;17.10;5.85;;;;;;;;;;5082157;28;20023;-71
2021/08/04 11:59:58;;;;;;;16.50;5.07;;;;;;;;;;5029609;28;20507;-71
2021/08/04 12:02:25;;;;;;;16.27;5.20;;;;;;;;;;5077684;28;20024;-72
2021/08/04 12:04:55;;;;;;;16.35;4.63;;;;;;;;;;5081988;28;20468;-71
2021/08/04 12:07:28;;;;;;;16.83;5.40;;;;;;;;;;5081798;28;20074;-71
2021/08/04 12:09:58;;;;;;;16.70;5.00;;;;;;;;;;5081919;28;20245;-71
2021/08/04 12:12:31;;;;;;;9.85;4.43;;;;;;;;;;5081485;28;20023;-71
2021/08/04 12:14:57;;;;;;;11.05;4.68;;;;;;;;;;5080412;28;20483;-71
2021/08/04 12:17:31;;;;;;;12.32;5.00;;;;;;;;;;5081687;28;21013;-71
2021/08/04 12:19:58;;;;;;;21.05;5.55;;;;;;;;;;5082106;28;20475;-71
2021/08/04 12:22:27;;;;;;;14.57;5.25;;;;;;;;;;5081507;28;20139;-71
2021/08/04 12:24:57;;;;;;;16.50;5.10;;;;;;;;;;5082133;28;20024;-72
2021/08/04 12:27:29;;;;;;;10.15;5.10;;;;;;;;;;5080424;28;20086;-71
2021/08/04 12:30:11;;;;;;;13.05;4.78;;;;;;;;;;5081774;28;20131;-71
2021/08/04 12:32:51;;;;;;;11.00;4.53;;;;;;;;;;5081498;28;20077;-71
2021/08/04 12:35:21;;;;;;;12.00;4.75;;;;;;;;;;5081681;28;20024;-71
2021/08/04 12:37:48;;;;;;;17.60;5.28;;;;;;;;;;5081533;28;20028;-71
2021/08/04 12:40:14;;;;;;;19.85;6.28;;;;;;;;;;5080139;28;20517;-71
2021/08/04 12:42:40;;;;;;;12.35;5.30;;;;;;;;;;5081780;28;20028;-72
2021/08/04 12:45:22;;;;;;;10.88;5.15;;;;;;;;;;5079878;28;20028;-71
2021/08/04 12:47:54;;;;;;;15.75;5.10;;;;;;;;;;5081811;28;20032;-71
2021/08/04 12:50:20;;;;;;;12.77;4.90;;;;;;;;;;5081765;28;20028;-71
2021/08/04 12:52:47;;;;;;;16.42;5.60;;;;;;;;;;5080458;28;20016;-71
2021/08/04 12:55:16;;;;;;;18.73;5.57;;;;;;;;;;5080046;28;20202;-71
2021/08/04 12:57:42;;;;;;;16.10;5.43;;;;;;;;;;5081387;28;20032;-71
2021/08/04 13:00:09;;;;;;;17.35;5.75;;;;;;;;;;5081833;28;20036;-72
2021/08/04 13:02:39;;;;;;;12.38;5.20;;;;;;;;;;5080955;28;20055;-71
2021/08/04 13:05:06;;;;;;;14.93;5.30;;;;;;;;;;5083198;28;20082;-71
2021/08/04 13:07:42;;;;;;;13.82;4.90;;;;;;;;;;5086020;28;20027;-71
2021/08/04 13:10:09;;;;;;;17.40;5.90;;;;;;;;;;5085763;28;20486;-71
2021/08/04 13:12:35;;;;;;;9.13;4.40;;;;;;;;;;5085501;28;20020;-71
2021/08/04 13:15:15;;;;;;;16.90;5.63;;;;;;;;;;5083847;28;20031;-71
2021/08/04 13:17:58;;;;;;;14.40;5.03;;;;;;;;;;5085181;28;20043;-71
2021/08/04 13:20:28;;;;;;;12.00;5.78;;;;;;;;;;5085572;28;20083;-71
2021/08/04 13:22:54;;;;;;;13.93;5.38;;;;;;;;;;5085087;28;20065;-71
2021/08/04 13:25:21;;;;;;;13.32;5.53;;;;;;;;;;5085408;28;20101;-71
2021/08/04 13:28:13;;;;;;;11.95;4.75;;;;;;;;;;5085580;28;20056;-71
2021/08/04 13:30:42;;;;;;;13.95;5.22;;;;;;;;;;5081693;28;20032;-71
2021/08/04 13:33:10;;;;;;;13.25;4.93;;;;;;;;;;5085076;28;20175;-71
2021/08/04 13:35:37;;;;;;;19.98;5.80;;;;;;;;;;5085544;28;20039;-70
2021/08/04 13:38:03;;;;;;;15.57;5.28;;;;;;;;;;5084933;28;20511;-71
2021/08/04 13:40:29;;;;;;;16.63;6.10;;;;;;;;;;5084328;28;20464;-71
2021/08/04 13:42:56;;;;;;;21.10;4.93;;;;;;;;;;5083177;28;20027;-71
2021/08/04 13:45:23;;;;;;;14.30;5.38;;;;;;;;;;5083915;28;20039;-71
2021/08/04 13:47:50;;;;;;;12.13;4.82;;;;;;;;;;5084889;28;20028;-71
2021/08/04 13:50:17;;;;;;;15.20;5.18;;;;;;;;;;5085055;28;20499;-71
2021/08/04 13:52:43;;;;;;;13.50;5.20;;;;;;;;;;5082947;28;20388;-71
2021/08/04 13:55:11;;;;;;;16.08;5.90;;;;;;;;;;5084757;28;20083;-71
2021/08/04 13:57:38;;;;;;;15.80;6.07;;;;;;;;;;5084502;28;20028;-71
2021/08/04 14:00:06;;;;;;;20.35;6.53;;;;;;;;;;5084427;28;20496;-71
2021/08/04 14:02:32;;;;;;;13.73;5.40;;;;;;;;;;5084275;28;20035;-71
2021/08/04 14:04:58;;;;;;;11.05;5.53;;;;;;;;;;5082990;28;20028;-71
2021/08/04 14:07:24;;;;;;;13.30;5.45;;;;;;;;;;5084705;28;20372;-71
2021/08/04 14:09:50;;;;;;;12.98;5.15;;;;;;;;;;5084662;28;20016;-71
2021/08/04 14:12:17;;;;;;;12.38;5.30;;;;;;;;;;5083919;28;20024;-71
2021/08/04 14:14:44;;;;;;;11.45;5.75;;;;;;;;;;5082355;28;20028;-71
2021/08/04 14:17:10;;;;;;;8.52;4.75;;;;;;;;;;5083558;28;20484;-71
2021/08/04 14:19:36;;;;;;;13.35;4.65;;;;;;;;;;5084231;28;20070;-71
2021/08/04 14:22:03;;;;;;;17.63;5.45;;;;;;;;;;5082068;28;20042;-71
2021/08/04 14:24:30;;;;;;;16.27;5.10;;;;;;;;;;5083896;28;20024;-71
2021/08/04 14:26:56;;;;;;;17.92;5.88;;;;;;;;;;5084551;28;20455;-71
2021/08/04 14:29:22;;;;;;;13.85;4.57;;;;;;;;;;5083603;28;20452;-72
2021/08/04 14:31:48;;;;;;;16.63;5.85;;;;;;;;;;5084010;28;20047;-71
2021/08/04 14:34:15;;;;;;;10.13;5.40;;;;;;;;;;5082582;28;20049;-71
2021/08/04 14:36:41;;;;;;;16.60;5.60;;;;;;;;;;5082040;28;20384;-71